Time;durP1;ratioP1;P1;durP2;ratioP2;P2;SDS_P1;SDS_P2;PMS_P1;PMS_P2;Temp;Humidity;BMP_temperature;BMP_pressure;BME280_temperature;BME280_humidity;BME280_pressure;Samples;Min_cycle;Max_cycle;Signal;HPM_P1;HPM_P2
2022/08/16 00:01:14;;;;;;;31.50;28.02;;;19.70;99.90;;;;;;5053899;28;20049;-26
2022/08/16 00:03:40;;;;;;;31.33;28.00;;;19.70;99.90;;;;;;5055536;28;20048;-25
2022/08/16 00:06:06;;;;;;;28.98;26.13;;;19.60;99.90;;;;;;5054224;28;20045;-25
2022/08/16 00:08:32;;;;;;;29.35;26.25;;;19.70;99.90;;;;;;5054165;28;20128;-25
2022/08/16 00:10:57;;;;;;;27.77;24.38;;;19.70;99.90;;;;;;5055967;28;20044;-25
2022/08/16 00:13:23;;;;;;;31.30;27.17;;;19.70;99.90;;;;;;5054370;28;20048;-25
2022/08/16 00:15:49;;;;;;;31.90;28.40;;;19.60;99.90;;;;;;5055327;28;20048;-25
2022/08/16 00:18:16;;;;;;;28.42;25.50;;;19.70;99.90;;;;;;5055071;28;20398;-25
2022/08/16 00:20:44;;;;;;;30.88;27.58;;;19.70;99.90;;;;;;5055149;28;20045;-25
2022/08/16 00:23:11;;;;;;;29.90;26.67;;;19.70;99.90;;;;;;5054058;28;20048;-25
2022/08/16 00:25:37;;;;;;;33.22;28.67;;;19.60;99.90;;;;;;5055086;28;20070;-25
2022/08/16 00:28:04;;;;;;;37.88;34.03;;;19.60;99.90;;;;;;5054087;28;20152;-25
2022/08/16 00:30:31;;;;;;;33.25;27.85;;;19.60;99.90;;;;;;5054386;28;20045;-26
2022/08/16 00:32:58;;;;;;;32.90;27.55;;;19.60;99.90;;;;;;5054442;28;20127;-26
2022/08/16 00:35:30;;;;;;;38.03;30.85;;;19.50;99.90;;;;;;5053755;28;20521;-25
2022/08/16 00:37:56;;;;;;;39.00;30.37;;;19.50;99.90;;;;;;5055253;28;20514;-25
2022/08/16 00:40:26;;;;;;;34.38;30.08;;;19.50;99.90;;;;;;5036989;28;20041;-25
2022/08/16 00:42:52;;;;;;;31.25;27.95;;;19.50;99.90;;;;;;5053696;28;20510;-25
2022/08/16 00:45:38;;;;;;;32.17;28.60;;;19.50;99.90;;;;;;5053223;28;20068;-26
2022/08/16 00:48:07;;;;;;;36.92;30.33;;;19.40;99.90;;;;;;5054789;28;20055;-25
2022/08/16 00:50:36;;;;;;;35.10;31.38;;;19.40;99.90;;;;;;5054319;28;20041;-25
2022/08/16 00:53:03;;;;;;;34.45;30.58;;;19.40;99.90;;;;;;5054548;28;20053;-25
2022/08/16 00:55:30;;;;;;;31.42;28.13;;;19.40;99.90;;;;;;5053472;28;20123;-25
2022/08/16 00:57:56;;;;;;;32.83;29.45;;;19.40;99.90;;;;;;5053524;28;20041;-25
2022/08/16 01:00:26;;;;;;;36.95;31.40;;;19.40;99.90;;;;;;5054338;28;20051;-26
2022/08/16 01:02:54;;;;;;;34.03;30.48;;;19.40;99.90;;;;;;5053090;28;20053;-25
2022/08/16 01:05:21;;;;;;;34.90;30.15;;;19.40;99.90;;;;;;5053577;28;20110;-25
2022/08/16 01:07:47;;;;;;;32.70;29.40;;;19.40;99.90;;;;;;5053088;28;20449;-25
2022/08/16 01:10:12;;;;;;;34.95;29.20;;;19.40;1.00;;;;;;5054810;28;20045;-25
2022/08/16 01:12:38;;;;;;;31.13;28.00;;;19.40;1.00;;;;;;5053057;28;20101;-25
2022/08/16 01:15:04;;;;;;;30.33;26.65;;;19.40;1.00;;;;;;5053174;28;20487;-25
2022/08/16 01:17:32;;;;;;;43.35;30.08;;;19.40;1.00;;;;;;5053463;28;20464;-25
2022/08/16 01:20:01;;;;;;;30.30;27.15;;;19.40;1.00;;;;;;5053605;28;20128;-25
2022/08/16 01:22:44;;;;;;;32.08;26.80;;;19.40;1.00;;;;;;5054041;28;20045;-25
2022/08/16 01:25:29;;;;;;;29.05;25.95;;;19.40;1.00;;;;;;5053103;28;20407;-25
2022/08/16 01:27:59;;;;;;;32.75;27.58;;;19.40;1.00;;;;;;5054265;28;20056;-25
2022/08/16 01:30:30;;;;;;;29.88;26.65;;;19.30;99.90;;;;;;5052676;28;20434;-25
2022/08/16 01:33:00;;;;;;;30.25;27.02;;;19.30;99.90;;;;;;5054480;28;20053;-25
2022/08/16 01:35:32;;;;;;;35.25;26.13;;;19.30;99.90;;;;;;5053103;28;20045;-26
2022/08/16 01:38:21;;;;;;;30.20;27.05;;;19.30;99.90;;;;;;5053437;28;20120;-25
2022/08/16 01:40:49;;;;;;;30.90;27.52;;;19.30;99.90;;;;;;5053716;28;20052;-25
2022/08/16 01:43:15;;;;;;;31.70;27.65;;;19.30;99.90;;;;;;5052700;28;20492;-25
2022/08/16 01:45:42;;;;;;;30.85;27.65;;;19.20;99.90;;;;;;5053712;28;20175;-26
2022/08/16 01:48:09;;;;;;;30.35;27.33;;;19.20;1.00;;;;;;5053699;28;20041;-25
2022/08/16 01:50:35;;;;;;;31.05;27.55;;;19.20;1.00;;;;;;5052758;28;20037;-25
2022/08/16 01:53:01;;;;;;;33.42;30.02;;;19.10;1.00;;;;;;5053594;28;20049;-26
2022/08/16 01:55:27;;;;;;;31.15;27.42;;;19.10;1.00;;;;;;5047848;28;20074;-26
2022/08/16 01:57:53;;;;;;;31.88;28.60;;;19.10;1.00;;;;;;5051929;28;20509;-25
2022/08/16 02:00:19;;;;;;;34.25;28.52;;;19.10;1.00;;;;;;5052125;28;20040;-26
2022/08/16 02:02:45;;;;;;;33.15;29.48;;;19.00;1.00;;;;;;5053819;28;20048;-26
2022/08/16 02:05:12;;;;;;;30.13;26.45;;;19.00;1.00;;;;;;5052394;28;20418;-25
2022/08/16 02:07:39;;;;;;;30.95;27.27;;;19.00;1.00;;;;;;5051432;28;20047;-26
2022/08/16 02:10:09;;;;;;;30.08;25.95;;;18.90;1.00;;;;;;5052491;28;20402;-26
2022/08/16 02:12:35;;;;;;;29.95;26.73;;;18.90;1.00;;;;;;5053450;28;20095;-25
2022/08/16 02:15:01;;;;;;;31.30;28.10;;;18.90;1.00;;;;;;5052536;28;20041;-25
2022/08/16 02:17:28;;;;;;;30.83;27.17;;;18.90;1.00;;;;;;5052155;28;20049;-25
2022/08/16 02:19:54;;;;;;;35.70;27.67;;;18.90;1.00;;;;;;5051950;28;20049;-25
2022/08/16 02:22:21;;;;;;;32.53;28.20;;;18.90;1.00;;;;;;5053586;28;20057;-25
2022/08/16 02:24:48;;;;;;;33.97;27.63;;;18.90;1.00;;;;;;5053328;28;20048;-26
2022/08/16 02:27:14;;;;;;;30.55;27.42;;;19.00;1.00;;;;;;5052481;28;20051;-26
2022/08/16 02:29:40;;;;;;;32.17;28.77;;;19.00;1.00;;;;;;5053300;28;20072;-25
2022/08/16 02:32:08;;;;;;;29.63;26.65;;;19.00;1.00;;;;;;5051731;28;20053;-25
2022/08/16 02:34:33;;;;;;;31.27;27.77;;;19.00;1.00;;;;;;5036129;28;20059;-26
2022/08/16 02:36:59;;;;;;;32.05;27.02;;;19.00;1.00;;;;;;5050892;28;20457;-26
2022/08/16 02:39:25;;;;;;;32.13;27.52;;;19.10;1.00;;;;;;5053095;28;20129;-26
2022/08/16 02:41:52;;;;;;;30.27;27.00;;;19.10;1.00;;;;;;5053193;28;20557;-25
2022/08/16 02:44:18;;;;;;;39.75;27.75;;;19.10;1.00;;;;;;5053149;28;20049;-26
2022/08/16 02:46:45;;;;;;;29.63;26.63;;;19.10;1.00;;;;;;5052381;28;20037;-25
2022/08/16 02:49:11;;;;;;;29.55;26.42;;;19.10;1.00;;;;;;5053622;28;20051;-25
2022/08/16 02:51:38;;;;;;;30.00;26.85;;;19.20;1.00;;;;;;5053352;28;20045;-26
2022/08/16 02:54:08;;;;;;;28.80;25.70;;;19.20;1.00;;;;;;5052119;28;20103;-26
2022/08/16 02:56:34;;;;;;;31.83;26.70;;;19.20;1.00;;;;;;5052010;28;20128;-26
2022/08/16 02:59:00;;;;;;;30.73;27.63;;;19.20;1.00;;;;;;5035265;28;20128;-25
2022/08/16 03:01:30;;;;;;;35.65;28.83;;;19.20;1.00;;;;;;5052948;28;20099;-26
2022/08/16 03:03:58;;;;;;;31.70;28.40;;;19.10;1.00;;;;;;5052952;28;20045;-26
2022/08/16 03:06:24;;;;;;;30.85;27.60;;;19.10;1.00;;;;;;5052254;28;20056;-26
2022/08/16 03:08:51;;;;;;;31.50;28.17;;;19.00;1.00;;;;;;5051061;28;20087;-26
2022/08/16 03:11:17;;;;;;;31.83;27.83;;;19.00;1.00;;;;;;5053438;28;20441;-26
2022/08/16 03:13:46;;;;;;;29.95;26.48;;;19.00;1.00;;;;;;5056092;28;20106;-26
2022/08/16 03:16:12;;;;;;;32.42;28.92;;;18.90;1.00;;;;;;5056461;28;20437;-26
2022/08/16 03:18:38;;;;;;;33.15;29.80;;;18.90;1.00;;;;;;5054099;28;20518;-26
2022/08/16 03:21:06;;;;;;;30.52;27.23;;;18.80;1.00;;;;;;5056394;28;20049;-26
2022/08/16 03:23:33;;;;;;;35.38;27.90;;;18.70;1.00;;;;;;5056286;28;20049;-26
2022/08/16 03:25:58;;;;;;;28.75;25.60;;;18.70;1.00;;;;;;5056837;28;20071;-26
2022/08/16 03:28:24;;;;;;;29.70;26.08;;;18.70;1.00;;;;;;5054359;28;20475;-25
2022/08/16 03:30:50;;;;;;;32.38;28.20;;;18.70;99.90;;;;;;5056011;28;20053;-26
2022/08/16 03:33:16;;;;;;;30.90;25.60;;;18.60;99.90;;;;;;5056110;28;20078;-26
2022/08/16 03:35:42;;;;;;;32.30;25.33;;;18.60;99.90;;;;;;5056090;28;20045;-26
2022/08/16 03:38:11;;;;;;;30.95;27.85;;;18.50;99.90;;;;;;5055829;28;20490;-25
2022/08/16 03:40:38;;;;;;;30.33;27.13;;;18.40;99.90;;;;;;5053028;28;20055;-25
2022/08/16 03:43:06;;;;;;;32.13;26.42;;;18.30;99.90;;;;;;5055964;28;20407;-26
2022/08/16 03:45:33;;;;;;;31.92;28.60;;;18.30;99.90;;;;;;5056510;28;20045;-26
2022/08/16 03:48:01;;;;;;;32.75;27.58;;;18.20;99.90;;;;;;5056132;28;20049;-26
2022/08/16 03:50:27;;;;;;;31.50;28.00;;;18.20;99.90;;;;;;5053246;28;20037;-26
2022/08/16 03:52:53;;;;;;;33.83;30.05;;;18.10;99.90;;;;;;5055029;28;20045;-26
2022/08/16 03:55:19;;;;;;;39.10;31.20;;;18.00;99.90;;;;;;5056521;28;20052;-25
2022/08/16 03:57:47;;;;;;;34.53;29.05;;;18.00;99.90;;;;;;5055645;28;20132;-26
2022/08/16 04:00:20;;;;;;;32.53;27.83;;;17.90;99.90;;;;;;5056381;28;20127;-26
2022/08/16 04:02:46;;;;;;;32.67;27.92;;;17.90;99.90;;;;;;5053969;28;20118;-26
2022/08/16 04:05:13;;;;;;;39.17;30.70;;;17.90;99.90;;;;;;5055519;28;20045;-26
2022/08/16 04:07:39;;;;;;;34.38;30.85;;;17.80;99.90;;;;;;5055146;28;20408;-25
2022/08/16 04:10:07;;;;;;;35.53;30.60;;;17.80;99.90;;;;;;5055460;28;20041;-25
2022/08/16 04:12:33;;;;;;;36.05;31.65;;;17.70;99.90;;;;;;5054376;28;20067;-25
2022/08/16 04:15:01;;;;;;;38.50;34.35;;;17.60;99.90;;;;;;5055858;28;20057;-26
2022/08/16 04:17:28;;;;;;;36.20;32.50;;;17.50;99.90;;;;;;5055290;28;20403;-26
2022/08/16 04:19:54;;;;;;;35.78;32.03;;;17.50;99.90;;;;;;5054865;28;20060;-26
2022/08/16 04:22:21;;;;;;;36.25;32.42;;;17.40;1.00;;;;;;5054082;28;20049;-26
2022/08/16 04:24:47;;;;;;;40.53;35.25;;;17.40;1.00;;;;;;5053954;28;20120;-26
2022/08/16 04:27:13;;;;;;;43.35;35.75;;;17.40;1.00;;;;;;5054139;28;20542;-26
2022/08/16 04:29:39;;;;;;;38.25;34.15;;;17.40;1.00;;;;;;5054738;28;20077;-26
2022/08/16 04:32:05;;;;;;;40.28;35.28;;;17.40;1.00;;;;;;5053830;28;20095;-26
2022/08/16 04:34:36;;;;;;;36.63;32.70;;;17.40;1.00;;;;;;5054218;28;20122;-26
2022/08/16 04:37:02;;;;;;;39.10;34.15;;;17.40;1.00;;;;;;5053785;28;20546;-26
2022/08/16 04:39:30;;;;;;;34.70;31.13;;;17.40;1.00;;;;;;5055321;28;20399;-26
2022/08/16 04:41:56;;;;;;;40.20;32.75;;;17.30;1.00;;;;;;5054791;28;20060;-26
2022/08/16 04:44:22;;;;;;;37.47;33.42;;;17.40;1.00;;;;;;5036087;28;20044;-26
2022/08/16 04:46:48;;;;;;;36.45;32.10;;;17.30;1.00;;;;;;5054473;28;20517;-26
2022/08/16 04:49:14;;;;;;;39.50;33.45;;;17.30;1.00;;;;;;5052542;28;20049;-26
2022/08/16 04:51:42;;;;;;;39.35;34.00;;;17.30;1.00;;;;;;5054327;28;20053;-26
2022/08/16 04:54:10;;;;;;;39.35;35.08;;;17.30;1.00;;;;;;5053524;28;20102;-26
2022/08/16 04:56:37;;;;;;;38.15;30.58;;;17.30;1.00;;;;;;5055069;28;20088;-26
2022/08/16 04:59:04;;;;;;;45.35;36.08;;;17.30;1.00;;;;;;5054421;28;20391;-26
2022/08/16 05:01:30;;;;;;;38.60;33.80;;;17.30;2.70;;;;;;5054471;28;20049;-26
2022/08/16 05:03:55;;;;;;;40.35;34.38;;;17.40;29.10;;;;;;5052320;28;20091;-26
2022/08/16 05:06:21;;;;;;;39.08;34.88;;;17.40;16.80;;;;;;5053369;28;20044;-26
2022/08/16 05:08:47;;;;;;;40.22;32.50;;;17.40;29.60;;;;;;5054830;28;20054;-26
2022/08/16 05:11:14;;;;;;;36.88;31.77;;;17.50;64.90;;;;;;5053307;28;20132;-26
2022/08/16 05:13:44;;;;;;;37.75;32.67;;;17.60;86.70;;;;;;5054203;28;20088;-26
2022/08/16 05:16:18;;;;;;;36.83;31.50;;;17.60;78.90;;;;;;5053681;28;20051;-27
2022/08/16 05:18:44;;;;;;;35.42;31.70;;;17.70;77.80;;;;;;5053842;28;20049;-26
2022/08/16 05:21:10;;;;;;;34.97;30.77;;;17.70;90.20;;;;;;5054110;28;20084;-26
2022/08/16 05:23:36;;;;;;;40.90;30.08;;;17.80;88.30;;;;;;5054634;28;20480;-26
2022/08/16 05:26:01;;;;;;;35.00;29.90;;;17.80;92.80;;;;;;5052078;28;20044;-26
2022/08/16 05:28:27;;;;;;;33.33;29.92;;;18.00;72.80;;;;;;5054002;28;20532;-26
2022/08/16 05:30:53;;;;;;;32.40;29.05;;;18.00;39.20;;;;;;5052721;28;20052;-26
2022/08/16 05:33:20;;;;;;;43.60;29.85;;;18.10;4.50;;;;;;5052976;28;20040;-26
2022/08/16 05:35:47;;;;;;;34.83;31.00;;;18.20;1.00;;;;;;5051781;28;20053;-26
2022/08/16 05:38:13;;;;;;;32.47;28.98;;;18.20;1.00;;;;;;5051925;28;20103;-26
2022/08/16 05:40:39;;;;;;;31.77;28.38;;;18.30;1.00;;;;;;5053746;28;20045;-26
2022/08/16 05:43:05;;;;;;;34.40;29.70;;;18.30;1.00;;;;;;5053095;28;20076;-26
2022/08/16 05:45:31;;;;;;;30.38;26.98;;;18.40;1.00;;;;;;5053375;28;20119;-27
2022/08/16 05:47:57;;;;;;;33.53;26.13;;;18.50;1.00;;;;;;5053706;28;20177;-26
2022/08/16 05:50:22;;;;;;;31.00;27.52;;;18.60;1.00;;;;;;5054226;28;20052;-26
2022/08/16 05:52:48;;;;;;;28.48;25.65;;;18.70;1.00;;;;;;5053594;28;20478;-27
2022/08/16 05:55:16;;;;;;;28.45;24.17;;;18.80;1.00;;;;;;5048607;28;20048;-26
2022/08/16 05:57:44;;;;;;;27.75;24.77;;;19.00;1.00;;;;;;5039494;28;20083;-26
2022/08/16 06:00:11;;;;;;;31.88;22.77;;;19.10;1.00;;;;;;5039218;28;20033;-26
2022/08/16 06:02:37;;;;;;;31.23;24.67;;;19.20;99.90;;;;;;5043296;28;20053;-26
2022/08/16 06:05:04;;;;;;;25.38;22.10;;;19.30;99.90;;;;;;5061887;28;20045;-27
2022/08/16 06:07:30;;;;;;;28.52;24.30;;;19.40;99.90;;;;;;5053511;28;20060;-26
2022/08/16 06:09:58;;;;;;;25.92;21.90;;;19.60;99.90;;;;;;5053372;28;20048;-27
2022/08/16 06:12:24;;;;;;;22.23;19.50;;;19.70;99.90;;;;;;5053344;28;20124;-26
2022/08/16 06:14:49;;;;;;;23.35;20.85;;;19.70;53.50;;;;;;5053135;28;20407;-26
2022/08/16 06:17:15;;;;;;;23.65;20.35;;;19.80;1.00;;;;;;5053278;28;20045;-26
2022/08/16 06:19:42;;;;;;;23.50;21.10;;;19.90;1.00;;;;;;5052301;28;20092;-26
2022/08/16 06:22:08;;;;;;;23.58;21.08;;;20.00;1.00;;;;;;5053212;28;20139;-26
2022/08/16 06:24:34;;;;;;;23.38;19.80;;;20.10;99.90;;;;;;5053641;28;20137;-26
2022/08/16 06:27:00;;;;;;;22.27;20.02;;;20.10;99.90;;;;;;5053415;28;20053;-27
2022/08/16 06:29:26;;;;;;;24.85;21.17;;;20.20;93.70;;;;;;5051273;28;20065;-26
2022/08/16 06:31:52;;;;;;;24.73;20.52;;;20.20;1.00;;;;;;5052258;28;20041;-27
2022/08/16 06:34:18;;;;;;;24.80;21.70;;;20.30;1.00;;;;;;5019577;28;20088;-26
2022/08/16 06:36:44;;;;;;;23.80;21.33;;;20.30;1.00;;;;;;5053272;28;20045;-26
2022/08/16 06:39:09;;;;;;;25.63;22.02;;;20.30;1.00;;;;;;5053126;28;20095;-26
2022/08/16 06:41:35;;;;;;;22.88;20.50;;;20.40;1.00;;;;;;5051748;28;20083;-27
2022/08/16 06:44:01;;;;;;;22.00;19.70;;;20.40;1.00;;;;;;5051644;28;20059;-27
2022/08/16 06:46:33;;;;;;;24.25;21.33;;;20.50;1.00;;;;;;5053264;28;20052;-26
2022/08/16 06:49:05;;;;;;;23.48;21.05;;;20.60;1.00;;;;;;5057891;28;20068;-26
2022/08/16 06:51:31;;;;;;;23.05;20.70;;;20.60;1.00;;;;;;5055843;28;20487;-27
2022/08/16 06:53:57;;;;;;;24.13;21.48;;;20.80;1.00;;;;;;5055932;28;20395;-27
2022/08/16 06:56:23;;;;;;;23.00;19.80;;;20.90;1.00;;;;;;5055651;28;20042;-27
2022/08/16 06:58:50;;;;;;;22.65;20.35;;;20.90;99.90;;;;;;5056725;28;20048;-27
2022/08/16 07:01:18;;;;;;;22.70;20.30;;;21.00;99.90;;;;;;5056286;28;20398;-27
2022/08/16 07:03:44;;;;;;;22.88;20.55;;;21.10;99.90;;;;;;5054047;28;20080;-27
2022/08/16 07:06:10;;;;;;;23.25;20.70;;;21.10;99.90;;;;;;5056615;28;20077;-27
2022/08/16 07:08:36;;;;;;;23.08;20.02;;;21.20;99.90;;;;;;5057466;28;20063;-28
2022/08/16 07:11:02;;;;;;;22.90;20.00;;;21.30;99.90;;;;;;5056531;28;20052;-26
2022/08/16 07:13:29;;;;;;;22.35;19.42;;;21.40;93.40;;;;;;5055582;28;20059;-27
2022/08/16 07:15:58;;;;;;;25.95;20.08;;;21.50;99.90;;;;;;5055481;28;20053;-26
2022/08/16 07:18:24;;;;;;;23.38;20.90;;;21.60;72.00;;;;;;5056223;28;20102;-27
2022/08/16 07:20:52;;;;;;;22.33;19.33;;;21.70;80.70;;;;;;5054640;28;20045;-27
2022/08/16 07:23:18;;;;;;;24.00;21.52;;;21.80;46.00;;;;;;5056374;28;20052;-27
2022/08/16 07:25:45;;;;;;;25.55;20.38;;;21.90;1.00;;;;;;5055359;28;20044;-27
2022/08/16 07:28:13;;;;;;;23.42;20.45;;;21.90;1.00;;;;;;5056263;28;20080;-27
2022/08/16 07:30:40;;;;;;;23.98;21.13;;;22.00;1.00;;;;;;5056208;28;20479;-27
2022/08/16 07:33:06;;;;;;;23.02;20.67;;;22.10;1.00;;;;;;5056235;28;20049;-27
2022/08/16 07:35:33;;;;;;;21.80;19.48;;;22.20;1.00;;;;;;5053669;28;20467;-26
2022/08/16 07:37:59;;;;;;;22.30;19.02;;;22.20;1.00;;;;;;5055368;28;20077;-27
2022/08/16 07:40:25;;;;;;;25.83;20.83;;;22.30;99.90;;;;;;5055288;28;20041;-28
2022/08/16 07:42:51;;;;;;;23.83;21.15;;;22.20;99.90;;;;;;5055988;28;20091;-27
2022/08/16 07:45:18;;;;;;;25.27;20.42;;;22.30;99.90;;;;;;5054759;28;20044;-27
2022/08/16 07:47:44;;;;;;;22.90;19.83;;;22.40;99.90;;;;;;5055109;28;20095;-27
2022/08/16 07:50:12;;;;;;;23.40;20.95;;;22.40;99.90;;;;;;5056387;28;20515;-27
2022/08/16 07:52:39;;;;;;;22.98;19.50;;;22.50;99.90;;;;;;5055831;28;20049;-26
2022/08/16 07:55:06;;;;;;;24.40;21.77;;;22.60;99.90;;;;;;5056344;28;20044;-26
2022/08/16 07:57:32;;;;;;;24.23;21.90;;;22.70;99.90;;;;;;5054316;28;20052;-26
2022/08/16 07:59:59;;;;;;;21.73;19.52;;;22.80;99.90;;;;;;5055280;28;20041;-27
2022/08/16 08:02:29;;;;;;;21.17;18.73;;;22.90;99.90;;;;;;5054507;28;20403;-27
2022/08/16 08:04:55;;;;;;;23.30;20.05;;;23.00;99.90;;;;;;5054667;28;20472;-27
2022/08/16 08:07:22;;;;;;;23.15;20.77;;;23.00;99.90;;;;;;5054523;28;20040;-28
2022/08/16 08:09:48;;;;;;;24.23;19.58;;;23.20;99.90;;;;;;5053445;28;20115;-27
2022/08/16 08:12:14;;;;;;;20.90;18.90;;;23.30;99.90;;;;;;5055285;28;20127;-27
2022/08/16 08:14:40;;;;;;;21.33;19.05;;;23.40;99.90;;;;;;5055414;28;20064;-27
2022/08/16 08:17:06;;;;;;;21.27;18.08;;;23.60;47.00;;;;;;5054533;28;20060;-27
2022/08/16 08:19:34;;;;;;;19.60;17.40;;;23.60;1.00;;;;;;5055329;28;20445;-27
2022/08/16 08:22:01;;;;;;;21.83;17.70;;;23.70;1.00;;;;;;5054104;28;20092;-27
2022/08/16 08:24:26;;;;;;;23.75;16.15;;;23.70;1.00;;;;;;5055194;28;20045;-27
2022/08/16 08:26:53;;;;;;;20.40;18.35;;;23.80;1.00;;;;;;5071148;28;20383;-27
2022/08/16 08:29:19;;;;;;;21.50;19.13;;;23.80;1.00;;;;;;5055111;28;20045;-26
2022/08/16 08:31:45;;;;;;;18.02;16.20;;;23.90;1.00;;;;;;5053931;28;20052;-27
2022/08/16 08:34:11;;;;;;;18.65;16.73;;;24.00;1.00;;;;;;5054224;28;20052;-26
2022/08/16 08:36:37;;;;;;;16.98;14.88;;;24.20;1.00;;;;;;5055771;28;20048;-27
2022/08/16 08:39:04;;;;;;;21.45;18.10;;;24.30;1.00;;;;;;5055108;28;20507;-27
2022/08/16 08:41:30;;;;;;;19.63;15.98;;;24.40;99.90;;;;;;5052755;28;20041;-27
2022/08/16 08:43:57;;;;;;;15.77;13.90;;;24.40;99.90;;;;;;5055319;28;20045;-27
2022/08/16 08:46:24;;;;;;;17.77;14.32;;;24.50;99.90;;;;;;5054033;28;20495;-27
2022/08/16 08:48:52;;;;;;;15.00;11.35;;;24.70;99.90;;;;;;5054689;28;20045;-26
2022/08/16 08:51:18;;;;;;;15.73;12.52;;;24.90;99.90;;;;;;5054611;28;20060;-27
2022/08/16 08:53:44;;;;;;;15.50;13.48;;;25.00;99.90;;;;;;5051925;28;20037;-26
2022/08/16 08:56:12;;;;;;;11.70;8.98;;;25.10;99.90;;;;;;5053945;28;20051;-28
2022/08/16 08:58:38;;;;;;;12.60;9.32;;;25.20;54.70;;;;;;5054569;28;20056;-27
2022/08/16 09:01:06;;;;;;;13.23;9.95;;;25.40;99.90;;;;;;5054493;28;20052;-27
2022/08/16 09:03:32;;;;;;;12.45;8.82;;;25.40;1.00;;;;;;5053404;28;20048;-27
2022/08/16 09:05:59;;;;;;;10.45;8.98;;;25.50;1.00;;;;;;5053716;28;20041;-28
2022/08/16 09:08:25;;;;;;;11.90;8.52;;;25.70;1.00;;;;;;5053402;28;20071;-27
2022/08/16 09:10:54;;;;;;;11.27;8.65;;;26.30;99.90;;;;;;5048963;28;20051;-27
2022/08/16 09:13:22;;;;;;;11.80;10.65;;;26.90;99.90;;;;;;5050619;28;20387;-27
2022/08/16 09:15:48;;;;;;;12.57;10.27;;;27.20;99.90;;;;;;5050168;28;20045;-27
2022/08/16 09:18:16;;;;;;;14.88;10.70;;;27.60;99.90;;;;;;5053988;28;20056;-27
2022/08/16 09:20:42;;;;;;;13.65;11.45;;;27.90;1.00;;;;;;5051662;28;20048;-27
2022/08/16 09:23:09;;;;;;;13.00;10.55;;;27.80;1.00;;;;;;5069552;28;20048;-27
2022/08/16 09:25:35;;;;;;;15.05;11.88;;;28.00;1.00;;;;;;5051882;28;20403;-27
2022/08/16 09:28:01;;;;;;;15.35;13.70;;;28.00;99.90;;;;;;5033051;28;20087;-27
2022/08/16 09:30:27;;;;;;;16.95;15.15;;;27.50;1.00;;;;;;5048054;28;20055;-27
2022/08/16 09:32:53;;;;;;;14.02;12.27;;;27.60;1.00;;;;;;5055472;28;20490;-27
2022/08/16 09:35:21;;;;;;;17.95;13.40;;;27.80;1.00;;;;;;5053815;28;20110;-27
2022/08/16 09:37:47;;;;;;;13.35;11.90;;;27.90;99.90;;;;;;5069266;28;20053;-27
2022/08/16 09:40:13;;;;;;;13.55;11.80;;;28.20;99.90;;;;;;5055031;28;20044;-27
2022/08/16 09:42:39;;;;;;;12.70;11.38;;;28.20;99.90;;;;;;5066086;28;20049;-28
2022/08/16 09:45:07;;;;;;;15.82;11.30;;;28.20;99.90;;;;;;5059144;28;20050;-27
2022/08/16 09:47:38;;;;;;;15.60;12.82;;;28.30;1.00;;;;;;5056099;28;20052;-27
2022/08/16 09:50:09;;;;;;;13.43;12.03;;;28.50;1.00;;;;;;5058222;28;20091;-28
2022/08/16 09:52:36;;;;;;;15.63;14.07;;;28.60;99.90;;;;;;5053693;28;20758;-28
2022/08/16 09:55:10;;;;;;;16.77;15.07;;;28.70;99.90;;;;;;5050715;28;20124;-27
2022/08/16 09:57:37;;;;;;;13.27;11.98;;;28.80;99.90;;;;;;5052410;28;20094;-27
2022/08/16 10:00:09;;;;;;;15.65;12.98;;;29.00;1.00;;;;;;5053373;28;20037;-27
2022/08/16 10:02:35;;;;;;;13.40;11.85;;;29.10;99.90;;;;;;5053328;28;20048;-27
2022/08/16 10:05:01;;;;;;;15.30;10.27;;;29.00;99.90;;;;;;5043093;28;20058;-27
2022/08/16 10:07:30;;;;;;;15.60;10.35;;;29.10;99.90;;;;;;5051633;28;20049;-27
2022/08/16 10:09:56;;;;;;;12.73;10.85;;;29.40;99.90;;;;;;5051178;28;20045;-28
2022/08/16 10:15:21;;;;;;;12.90;9.45;;;29.30;99.90;;;;;;5052359;28;20104;-27
2022/08/16 10:17:52;;;;;;;10.68;8.15;;;29.20;99.90;;;;;;5051214;28;20506;-27
2022/08/16 10:20:18;;;;;;;13.10;8.73;;;28.80;99.90;;;;;;5050830;28;20049;-27
2022/08/16 10:22:44;;;;;;;12.35;8.40;;;28.80;99.90;;;;;;5057443;28;20044;-27
2022/08/16 10:25:10;;;;;;;11.82;9.55;;;28.80;99.90;;;;;;5057393;28;20052;-28
2022/08/16 10:27:36;;;;;;;10.73;9.07;;;28.90;99.90;;;;;;5057366;28;20503;-27
2022/08/16 10:30:05;;;;;;;11.93;8.35;;;29.10;99.90;;;;;;5056490;28;20099;-27
2022/08/16 10:32:32;;;;;;;11.50;10.23;;;29.00;99.90;;;;;;5057210;28;20048;-27
2022/08/16 10:34:59;;;;;;;12.02;10.35;;;29.10;99.90;;;;;;5050603;28;20530;-28
2022/08/16 10:37:26;;;;;;;13.02;10.45;;;29.20;99.90;;;;;;5052878;28;20483;-28
2022/08/16 10:39:51;;;;;;;15.57;9.90;;;29.20;99.90;;;;;;5051390;28;20079;-27
2022/08/16 10:42:17;;;;;;;14.45;9.60;;;29.30;99.90;;;;;;5055661;28;20092;-27
2022/08/16 10:44:43;;;;;;;12.57;9.25;;;29.50;99.90;;;;;;5054575;28;20045;-27
2022/08/16 10:47:10;;;;;;;9.38;8.38;;;29.40;99.90;;;;;;5052691;28;20045;-28
2022/08/16 10:49:36;;;;;;;9.63;8.20;;;29.10;99.90;;;;;;5054706;28;20075;-27
2022/08/16 10:52:02;;;;;;;10.95;8.90;;;29.20;99.90;;;;;;5054860;28;20080;-27
2022/08/16 10:54:28;;;;;;;11.02;9.95;;;29.30;99.90;;;;;;5055207;28;20044;-27
2022/08/16 10:56:54;;;;;;;11.80;7.47;;;29.60;99.90;;;;;;5055760;28;20040;-28
2022/08/16 10:59:21;;;;;;;11.82;8.85;;;30.00;99.90;;;;;;5056835;28;20075;-28
2022/08/16 11:01:47;;;;;;;17.42;10.60;;;30.20;99.90;;;;;;5046213;28;20060;-27
2022/08/16 11:04:13;;;;;;;10.88;7.95;;;29.80;99.90;;;;;;5056605;28;20056;-28
2022/08/16 11:06:39;;;;;;;11.65;7.97;;;29.60;99.90;;;;;;5056669;28;20052;-28
2022/08/16 11:09:08;;;;;;;10.27;7.68;;;29.60;99.90;;;;;;5048170;28;20079;-27
2022/08/16 11:11:34;;;;;;;12.57;9.43;;;29.70;99.90;;;;;;5054854;28;20548;-28
2022/08/16 11:13:59;;;;;;;10.40;8.45;;;29.60;99.90;;;;;;5056339;28;20051;-27
2022/08/16 11:16:27;;;;;;;13.20;8.88;;;29.80;99.90;;;;;;5056442;28;20067;-27
2022/08/16 11:18:54;;;;;;;10.35;9.27;;;30.00;99.90;;;;;;5054398;28;20472;-28
2022/08/16 11:21:22;;;;;;;12.90;9.48;;;30.00;99.90;;;;;;5053393;28;20041;-28
2022/08/16 11:23:48;;;;;;;9.57;7.97;;;30.00;99.90;;;;;;5055843;28;20052;-27
2022/08/16 11:26:13;;;;;;;14.73;8.95;;;30.00;99.90;;;;;;5055501;28;20045;-27
2022/08/16 11:28:39;;;;;;;11.85;10.65;;;30.20;99.90;;;;;;5057045;28;20088;-28
2022/08/16 11:31:05;;;;;;;12.00;10.32;;;30.10;99.90;;;;;;5055577;28;20167;-28
2022/08/16 11:33:31;;;;;;;10.23;9.23;;;30.00;99.90;;;;;;5055568;28;20102;-28
2022/08/16 11:35:58;;;;;;;15.05;10.32;;;29.90;99.90;;;;;;5056031;28;20045;-28
2022/08/16 11:38:23;;;;;;;13.73;9.70;;;29.80;99.90;;;;;;5055782;28;20491;-27
2022/08/16 11:40:56;;;;;;;17.88;11.43;;;29.40;99.90;;;;;;5055072;28;20056;-27
2022/08/16 11:43:32;;;;;;;12.02;9.70;;;29.30;99.90;;;;;;5055279;28;20084;-28
2022/08/16 11:46:01;;;;;;;12.73;8.68;;;29.50;99.90;;;;;;5055954;28;20041;-27
2022/08/16 11:48:29;;;;;;;12.93;9.35;;;29.80;99.90;;;;;;5057979;28;20067;-28
2022/08/16 11:50:56;;;;;;;12.02;10.43;;;30.10;99.90;;;;;;5069402;28;20126;-28
2022/08/16 11:53:23;;;;;;;13.23;10.45;;;29.80;99.90;;;;;;5055693;28;20087;-28
2022/08/16 11:55:52;;;;;;;17.05;11.65;;;29.50;1.00;;;;;;5055755;28;20106;-28
2022/08/16 11:58:18;;;;;;;15.98;11.27;;;29.30;1.00;;;;;;5056151;28;20045;-27
2022/08/16 12:00:45;;;;;;;17.52;12.25;;;29.30;1.00;;;;;;5053181;28;20044;-28
2022/08/16 12:03:12;;;;;;;12.90;11.50;;;29.20;1.00;;;;;;5054840;28;20052;-28
2022/08/16 12:05:40;;;;;;;13.35;10.48;;;29.10;1.00;;;;;;5055241;28;20579;-28
2022/08/16 12:08:07;;;;;;;14.52;12.10;;;29.10;1.00;;;;;;5055503;28;20479;-28
2022/08/16 12:10:34;;;;;;;12.23;10.18;;;29.20;1.00;;;;;;5056093;28;20099;-28
2022/08/16 12:13:00;;;;;;;14.40;11.23;;;29.10;1.00;;;;;;5055438;28;20106;-27
2022/08/16 12:15:26;;;;;;;13.05;11.15;;;29.20;1.00;;;;;;5055371;28;20082;-28
2022/08/16 12:17:55;;;;;;;11.27;9.35;;;29.30;1.00;;;;;;5053138;28;20098;-27
2022/08/16 12:20:29;;;;;;;17.13;11.48;;;28.90;99.90;;;;;;5054385;28;20403;-28
2022/08/16 12:22:56;;;;;;;14.73;11.13;;;28.20;1.00;;;;;;5045375;28;20041;-27
2022/08/16 12:25:24;;;;;;;11.88;10.60;;;28.00;1.00;;;;;;5055231;28;20045;-27
2022/08/16 12:27:51;;;;;;;14.98;11.40;;;27.80;4.90;;;;;;5054415;28;20049;-27
2022/08/16 12:30:21;;;;;;;11.23;9.95;;;27.30;96.80;;;;;;5055348;28;20487;-27
2022/08/16 12:32:47;;;;;;;14.35;9.50;;;27.30;38.40;;;;;;5052995;28;20129;-29
2022/08/16 12:35:18;;;;;;;13.38;10.90;;;27.40;81.10;;;;;;5052736;28;20072;-29